sensor_id;sensor_type;location;lat;lon;timestamp;P1;durP1;ratioP1;P2;durP2;ratioP2
10633;SDS011;5365;51.640;8.106;2024-02-04T00:00:51;14.23;;;7.68;;
10633;SDS011;5365;51.640;8.106;2024-02-04T00:03:53;17.60;;;7.97;;
10633;SDS011;5365;51.640;8.106;2024-02-04T00:06:55;10.23;;;5.25;;
10633;SDS011;5365;51.640;8.106;2024-02-04T00:09:56;14.18;;;6.13;;
10633;SDS011;5365;51.640;8.106;2024-02-04T00:12:58;15.15;;;7.07;;
10633;SDS011;5365;51.640;8.106;2024-02-04T00:16:01;13.05;;;6.55;;
10633;SDS011;5365;51.640;8.106;2024-02-04T00:19:02;16.45;;;8.43;;
10633;SDS011;5365;51.640;8.106;2024-02-04T00:22:04;18.83;;;8.18;;
10633;SDS011;5365;51.640;8.106;2024-02-04T00:25:06;16.95;;;8.45;;
10633;SDS011;5365;51.640;8.106;2024-02-04T00:28:08;14.13;;;6.28;;
10633;SDS011;5365;51.640;8.106;2024-02-04T00:31:13;11.23;;;5.70;;
10633;SDS011;5365;51.640;8.106;2024-02-04T00:34:14;17.40;;;6.60;;
10633;SDS011;5365;51.640;8.106;2024-02-04T00:37:16;14.13;;;6.97;;
10633;SDS011;5365;51.640;8.106;2024-02-04T00:40:18;9.25;;;4.20;;
10633;SDS011;5365;51.640;8.106;2024-02-04T00:43:20;7.80;;;4.03;;
10633;SDS011;5365;51.640;8.106;2024-02-04T00:46:21;16.52;;;8.98;;
10633;SDS011;5365;51.640;8.106;2024-02-04T00:49:23;12.98;;;7.13;;
10633;SDS011;5365;51.640;8.106;2024-02-04T00:52:25;7.43;;;3.92;;
10633;SDS011;5365;51.640;8.106;2024-02-04T00:55:26;15.98;;;6.50;;
10633;SDS011;5365;51.640;8.106;2024-02-04T00:58:28;16.83;;;7.70;;
10633;SDS011;5365;51.640;8.106;2024-02-04T01:01:30;10.35;;;4.78;;
10633;SDS011;5365;51.640;8.106;2024-02-04T01:04:31;10.02;;;3.80;;
10633;SDS011;5365;51.640;8.106;2024-02-04T01:07:33;16.02;;;6.38;;
10633;SDS011;5365;51.640;8.106;2024-02-04T01:10:35;19.35;;;8.70;;
10633;SDS011;5365;51.640;8.106;2024-02-04T01:13:36;9.93;;;5.10;;
10633;SDS011;5365;51.640;8.106;2024-02-04T01:16:38;14.30;;;6.88;;
10633;SDS011;5365;51.640;8.106;2024-02-04T01:19:40;12.50;;;6.18;;
10633;SDS011;5365;51.640;8.106;2024-02-04T01:22:42;9.82;;;4.35;;
10633;SDS011;5365;51.640;8.106;2024-02-04T01:25:43;10.00;;;4.45;;
10633;SDS011;5365;51.640;8.106;2024-02-04T01:28:45;5.18;;;3.35;;
10633;SDS011;5365;51.640;8.106;2024-02-04T01:31:47;8.90;;;4.30;;
10633;SDS011;5365;51.640;8.106;2024-02-04T01:34:48;7.30;;;2.80;;
10633;SDS011;5365;51.640;8.106;2024-02-04T01:37:50;6.35;;;3.38;;
10633;SDS011;5365;51.640;8.106;2024-02-04T01:40:52;4.68;;;3.08;;
10633;SDS011;5365;51.640;8.106;2024-02-04T01:43:55;8.25;;;4.55;;
10633;SDS011;5365;51.640;8.106;2024-02-04T01:46:57;4.88;;;2.67;;
10633;SDS011;5365;51.640;8.106;2024-02-04T01:49:59;8.88;;;4.47;;
10633;SDS011;5365;51.640;8.106;2024-02-04T01:53:01;6.97;;;3.03;;
10633;SDS011;5365;51.640;8.106;2024-02-04T01:56:02;5.15;;;3.25;;
10633;SDS011;5365;51.640;8.106;2024-02-04T01:59:05;10.15;;;4.50;;
10633;SDS011;5365;51.640;8.106;2024-02-04T02:02:07;8.20;;;3.67;;
10633;SDS011;5365;51.640;8.106;2024-02-04T02:05:08;3.45;;;2.22;;
10633;SDS011;5365;51.640;8.106;2024-02-04T02:08:11;5.40;;;2.47;;
10633;SDS011;5365;51.640;8.106;2024-02-04T02:11:15;10.18;;;4.28;;
10633;SDS011;5365;51.640;8.106;2024-02-04T02:14:19;3.38;;;2.40;;
10633;SDS011;5365;51.640;8.106;2024-02-04T02:17:38;5.68;;;2.95;;
10633;SDS011;5365;51.640;8.106;2024-02-04T02:20:55;5.15;;;2.47;;
10633;SDS011;5365;51.640;8.106;2024-02-04T02:27:01;5.68;;;1.65;;
10633;SDS011;5365;51.640;8.106;2024-02-04T02:30:03;7.03;;;2.70;;
10633;SDS011;5365;51.640;8.106;2024-02-04T02:33:04;3.00;;;1.67;;
10633;SDS011;5365;51.640;8.106;2024-02-04T02:36:09;4.00;;;2.03;;
10633;SDS011;5365;51.640;8.106;2024-02-04T02:39:15;2.13;;;0.95;;
10633;SDS011;5365;51.640;8.106;2024-02-04T02:42:18;2.47;;;1.25;;
10633;SDS011;5365;51.640;8.106;2024-02-04T02:45:21;3.80;;;1.98;;
10633;SDS011;5365;51.640;8.106;2024-02-04T02:48:24;3.17;;;1.08;;
10633;SDS011;5365;51.640;8.106;2024-02-04T02:51:26;2.33;;;1.10;;
10633;SDS011;5365;51.640;8.106;2024-02-04T02:54:27;1.48;;;0.60;;
10633;SDS011;5365;51.640;8.106;2024-02-04T02:57:29;2.00;;;0.93;;
10633;SDS011;5365;51.640;8.106;2024-02-04T03:00:31;2.38;;;0.90;;
10633;SDS011;5365;51.640;8.106;2024-02-04T03:03:33;2.78;;;1.13;;
10633;SDS011;5365;51.640;8.106;2024-02-04T03:06:34;3.08;;;1.40;;
10633;SDS011;5365;51.640;8.106;2024-02-04T03:09:36;3.58;;;2.17;;
10633;SDS011;5365;51.640;8.106;2024-02-04T03:12:38;6.70;;;2.70;;
10633;SDS011;5365;51.640;8.106;2024-02-04T03:15:39;5.38;;;2.28;;
10633;SDS011;5365;51.640;8.106;2024-02-04T03:18:43;4.85;;;2.67;;
10633;SDS011;5365;51.640;8.106;2024-02-04T03:21:45;5.65;;;2.90;;
10633;SDS011;5365;51.640;8.106;2024-02-04T03:24:49;4.20;;;1.90;;
10633;SDS011;5365;51.640;8.106;2024-02-04T03:27:50;6.00;;;2.50;;
10633;SDS011;5365;51.640;8.106;2024-02-04T03:30:54;5.20;;;2.10;;
10633;SDS011;5365;51.640;8.106;2024-02-04T03:33:56;5.57;;;2.83;;
10633;SDS011;5365;51.640;8.106;2024-02-04T03:36:58;6.00;;;2.63;;
10633;SDS011;5365;51.640;8.106;2024-02-04T03:39:59;5.57;;;2.50;;
10633;SDS011;5365;51.640;8.106;2024-02-04T03:43:01;10.38;;;5.25;;
10633;SDS011;5365;51.640;8.106;2024-02-04T03:46:03;4.20;;;2.85;;
10633;SDS011;5365;51.640;8.106;2024-02-04T03:49:08;6.68;;;3.53;;
10633;SDS011;5365;51.640;8.106;2024-02-04T03:52:10;5.53;;;3.28;;
10633;SDS011;5365;51.640;8.106;2024-02-04T03:55:12;6.18;;;3.40;;
10633;SDS011;5365;51.640;8.106;2024-02-04T03:58:13;7.03;;;3.50;;
10633;SDS011;5365;51.640;8.106;2024-02-04T04:01:15;7.50;;;3.78;;
10633;SDS011;5365;51.640;8.106;2024-02-04T04:04:17;9.15;;;3.67;;
10633;SDS011;5365;51.640;8.106;2024-02-04T04:07:18;6.47;;;3.17;;
10633;SDS011;5365;51.640;8.106;2024-02-04T04:10:20;12.07;;;4.90;;
10633;SDS011;5365;51.640;8.106;2024-02-04T04:13:22;8.05;;;4.00;;
10633;SDS011;5365;51.640;8.106;2024-02-04T04:16:23;9.25;;;4.68;;
10633;SDS011;5365;51.640;8.106;2024-02-04T04:19:25;8.23;;;4.95;;
10633;SDS011;5365;51.640;8.106;2024-02-04T04:22:27;9.02;;;5.28;;
10633;SDS011;5365;51.640;8.106;2024-02-04T04:25:28;7.70;;;3.55;;
10633;SDS011;5365;51.640;8.106;2024-02-04T04:28:30;8.27;;;5.20;;
10633;SDS011;5365;51.640;8.106;2024-02-04T04:31:31;13.27;;;6.05;;
10633;SDS011;5365;51.640;8.106;2024-02-04T04:34:33;8.85;;;4.30;;
10633;SDS011;5365;51.640;8.106;2024-02-04T04:37:35;10.32;;;4.80;;
10633;SDS011;5365;51.640;8.106;2024-02-04T04:40:36;3.70;;;2.65;;
10633;SDS011;5365;51.640;8.106;2024-02-04T04:43:38;4.55;;;2.90;;
10633;SDS011;5365;51.640;8.106;2024-02-04T04:46:40;7.85;;;4.22;;
10633;SDS011;5365;51.640;8.106;2024-02-04T04:49:42;6.72;;;4.30;;
10633;SDS011;5365;51.640;8.106;2024-02-04T04:52:43;15.68;;;6.40;;
10633;SDS011;5365;51.640;8.106;2024-02-04T04:55:45;6.93;;;3.55;;
10633;SDS011;5365;51.640;8.106;2024-02-04T04:58:46;11.95;;;5.88;;
10633;SDS011;5365;51.640;8.106;2024-02-04T05:01:48;12.80;;;5.22;;
10633;SDS011;5365;51.640;8.106;2024-02-04T05:04:50;7.47;;;3.60;;
10633;SDS011;5365;51.640;8.106;2024-02-04T05:07:52;7.05;;;4.63;;
10633;SDS011;5365;51.640;8.106;2024-02-04T05:10:53;11.50;;;4.47;;
10633;SDS011;5365;51.640;8.106;2024-02-04T05:13:55;5.65;;;4.10;;
10633;SDS011;5365;51.640;8.106;2024-02-04T05:16:57;6.05;;;4.22;;
10633;SDS011;5365;51.640;8.106;2024-02-04T05:19:58;11.73;;;4.95;;
10633;SDS011;5365;51.640;8.106;2024-02-04T05:23:00;18.92;;;7.20;;
10633;SDS011;5365;51.640;8.106;2024-02-04T05:26:05;13.02;;;5.90;;
10633;SDS011;5365;51.640;8.106;2024-02-04T05:32:08;12.90;;;4.30;;
10633;SDS011;5365;51.640;8.106;2024-02-04T05:35:10;9.65;;;4.05;;
10633;SDS011;5365;51.640;8.106;2024-02-04T05:38:12;8.43;;;4.93;;
10633;SDS011;5365;51.640;8.106;2024-02-04T05:41:13;13.52;;;7.55;;
10633;SDS011;5365;51.640;8.106;2024-02-04T05:44:15;15.40;;;6.43;;
10633;SDS011;5365;51.640;8.106;2024-02-04T05:47:16;12.40;;;6.80;;
10633;SDS011;5365;51.640;8.106;2024-02-04T05:50:18;21.20;;;8.82;;
10633;SDS011;5365;51.640;8.106;2024-02-04T05:53:20;8.90;;;5.18;;
10633;SDS011;5365;51.640;8.106;2024-02-04T05:56:21;25.58;;;10.25;;
10633;SDS011;5365;51.640;8.106;2024-02-04T05:59:23;16.20;;;6.88;;
10633;SDS011;5365;51.640;8.106;2024-02-04T06:02:25;14.20;;;7.28;;
10633;SDS011;5365;51.640;8.106;2024-02-04T06:05:26;30.00;;;10.82;;
10633;SDS011;5365;51.640;8.106;2024-02-04T06:08:28;20.20;;;9.40;;
10633;SDS011;5365;51.640;8.106;2024-02-04T06:11:29;17.63;;;10.20;;
10633;SDS011;5365;51.640;8.106;2024-02-04T06:14:32;11.80;;;6.85;;
10633;SDS011;5365;51.640;8.106;2024-02-04T06:17:34;11.75;;;5.60;;
10633;SDS011;5365;51.640;8.106;2024-02-04T06:20:35;17.05;;;7.43;;
10633;SDS011;5365;51.640;8.106;2024-02-04T06:23:38;17.45;;;6.38;;
10633;SDS011;5365;51.640;8.106;2024-02-04T06:26:39;21.27;;;7.05;;
10633;SDS011;5365;51.640;8.106;2024-02-04T06:29:41;16.02;;;8.05;;
10633;SDS011;5365;51.640;8.106;2024-02-04T06:32:43;22.48;;;7.63;;
10633;SDS011;5365;51.640;8.106;2024-02-04T06:35:44;9.35;;;6.05;;
10633;SDS011;5365;51.640;8.106;2024-02-04T06:38:46;15.43;;;6.95;;
10633;SDS011;5365;51.640;8.106;2024-02-04T06:41:47;16.88;;;6.95;;
10633;SDS011;5365;51.640;8.106;2024-02-04T06:44:49;15.98;;;8.65;;
10633;SDS011;5365;51.640;8.106;2024-02-04T06:47:51;13.23;;;8.70;;
10633;SDS011;5365;51.640;8.106;2024-02-04T06:50:52;18.08;;;7.07;;
10633;SDS011;5365;51.640;8.106;2024-02-04T06:53:54;17.65;;;6.72;;
10633;SDS011;5365;51.640;8.106;2024-02-04T06:56:56;17.67;;;7.75;;
10633;SDS011;5365;51.640;8.106;2024-02-04T06:59:57;13.23;;;6.88;;
10633;SDS011;5365;51.640;8.106;2024-02-04T07:02:59;12.90;;;8.18;;
10633;SDS011;5365;51.640;8.106;2024-02-04T07:06:01;9.38;;;5.55;;
10633;SDS011;5365;51.640;8.106;2024-02-04T07:09:02;11.73;;;5.25;;
10633;SDS011;5365;51.640;8.106;2024-02-04T07:12:04;11.88;;;5.43;;
10633;SDS011;5365;51.640;8.106;2024-02-04T07:15:06;17.90;;;8.52;;
10633;SDS011;5365;51.640;8.106;2024-02-04T07:18:09;12.55;;;6.88;;
10633;SDS011;5365;51.640;8.106;2024-02-04T07:21:11;19.60;;;8.30;;
10633;SDS011;5365;51.640;8.106;2024-02-04T07:24:13;13.13;;;7.00;;
10633;SDS011;5365;51.640;8.106;2024-02-04T07:27:14;16.77;;;8.30;;
10633;SDS011;5365;51.640;8.106;2024-02-04T07:30:16;16.67;;;7.93;;
10633;SDS011;5365;51.640;8.106;2024-02-04T07:33:18;17.40;;;9.23;;
10633;SDS011;5365;51.640;8.106;2024-02-04T07:36:19;12.98;;;7.30;;
10633;SDS011;5365;51.640;8.106;2024-02-04T07:39:21;24.75;;;8.93;;
10633;SDS011;5365;51.640;8.106;2024-02-04T07:42:23;15.88;;;7.00;;
10633;SDS011;5365;51.640;8.106;2024-02-04T07:45:25;16.90;;;7.45;;
10633;SDS011;5365;51.640;8.106;2024-02-04T07:48:27;19.90;;;7.95;;
10633;SDS011;5365;51.640;8.106;2024-02-04T07:51:29;15.80;;;7.43;;
10633;SDS011;5365;51.640;8.106;2024-02-04T07:54:31;16.75;;;8.15;;
10633;SDS011;5365;51.640;8.106;2024-02-04T07:57:41;17.96;;;7.02;;
10633;SDS011;5365;51.640;8.106;2024-02-04T08:00:42;12.43;;;6.25;;
10633;SDS011;5365;51.640;8.106;2024-02-04T08:03:44;19.85;;;7.85;;
10633;SDS011;5365;51.640;8.106;2024-02-04T08:06:48;13.13;;;6.47;;
10633;SDS011;5365;51.640;8.106;2024-02-04T08:09:50;12.23;;;5.88;;
10633;SDS011;5365;51.640;8.106;2024-02-04T08:12:53;14.90;;;5.75;;
10633;SDS011;5365;51.640;8.106;2024-02-04T08:15:55;14.27;;;7.18;;
10633;SDS011;5365;51.640;8.106;2024-02-04T08:18:57;9.55;;;4.93;;
10633;SDS011;5365;51.640;8.106;2024-02-04T08:21:59;14.32;;;6.88;;
10633;SDS011;5365;51.640;8.106;2024-02-04T08:25:02;15.40;;;7.32;;
10633;SDS011;5365;51.640;8.106;2024-02-04T08:28:04;17.20;;;8.15;;
10633;SDS011;5365;51.640;8.106;2024-02-04T08:31:05;9.32;;;5.53;;
10633;SDS011;5365;51.640;8.106;2024-02-04T08:34:07;11.63;;;6.68;;
10633;SDS011;5365;51.640;8.106;2024-02-04T08:37:09;18.25;;;7.75;;
10633;SDS011;5365;51.640;8.106;2024-02-04T08:40:10;15.70;;;8.07;;
10633;SDS011;5365;51.640;8.106;2024-02-04T08:43:12;17.33;;;7.60;;
10633;SDS011;5365;51.640;8.106;2024-02-04T08:46:14;14.38;;;7.07;;
10633;SDS011;5365;51.640;8.106;2024-02-04T08:49:16;12.95;;;7.22;;
10633;SDS011;5365;51.640;8.106;2024-02-04T08:52:17;17.25;;;8.27;;
10633;SDS011;5365;51.640;8.106;2024-02-04T08:55:19;12.10;;;6.53;;
10633;SDS011;5365;51.640;8.106;2024-02-04T08:58:22;16.85;;;7.35;;
10633;SDS011;5365;51.640;8.106;2024-02-04T09:01:23;8.35;;;5.32;;
10633;SDS011;5365;51.640;8.106;2024-02-04T09:04:25;12.13;;;6.32;;
10633;SDS011;5365;51.640;8.106;2024-02-04T09:07:27;13.45;;;6.22;;
10633;SDS011;5365;51.640;8.106;2024-02-04T09:10:29;13.52;;;7.03;;
10633;SDS011;5365;51.640;8.106;2024-02-04T09:13:31;9.15;;;5.22;;
10633;SDS011;5365;51.640;8.106;2024-02-04T09:16:33;21.88;;;9.40;;
10633;SDS011;5365;51.640;8.106;2024-02-04T09:19:34;12.80;;;6.10;;
10633;SDS011;5365;51.640;8.106;2024-02-04T09:22:38;8.52;;;4.25;;
10633;SDS011;5365;51.640;8.106;2024-02-04T09:25:40;11.20;;;6.07;;
10633;SDS011;5365;51.640;8.106;2024-02-04T09:28:42;10.05;;;5.18;;
10633;SDS011;5365;51.640;8.106;2024-02-04T09:31:44;10.88;;;5.13;;
10633;SDS011;5365;51.640;8.106;2024-02-04T09:34:45;6.90;;;4.32;;
10633;SDS011;5365;51.640;8.106;2024-02-04T09:37:47;8.05;;;4.50;;
10633;SDS011;5365;51.640;8.106;2024-02-04T09:40:49;7.07;;;3.75;;
10633;SDS011;5365;51.640;8.106;2024-02-04T09:43:50;4.20;;;2.83;;
10633;SDS011;5365;51.640;8.106;2024-02-04T09:46:53;7.00;;;3.78;;
10633;SDS011;5365;51.640;8.106;2024-02-04T09:49:54;9.63;;;4.75;;
10633;SDS011;5365;51.640;8.106;2024-02-04T09:53:00;5.53;;;2.78;;
10633;SDS011;5365;51.640;8.106;2024-02-04T09:56:04;9.52;;;4.10;;
10633;SDS011;5365;51.640;8.106;2024-02-04T09:59:10;8.95;;;3.70;;
10633;SDS011;5365;51.640;8.106;2024-02-04T10:02:12;5.00;;;2.25;;
10633;SDS011;5365;51.640;8.106;2024-02-04T10:05:15;6.07;;;1.98;;
10633;SDS011;5365;51.640;8.106;2024-02-04T10:08:17;3.42;;;2.38;;
10633;SDS011;5365;51.640;8.106;2024-02-04T10:11:21;6.35;;;2.88;;
10633;SDS011;5365;51.640;8.106;2024-02-04T10:14:23;4.53;;;1.77;;
10633;SDS011;5365;51.640;8.106;2024-02-04T10:17:25;4.10;;;2.05;;
10633;SDS011;5365;51.640;8.106;2024-02-04T10:20:27;3.60;;;1.63;;
10633;SDS011;5365;51.640;8.106;2024-02-04T10:23:28;2.08;;;0.95;;
10633;SDS011;5365;51.640;8.106;2024-02-04T10:26:30;3.13;;;1.42;;
10633;SDS011;5365;51.640;8.106;2024-02-04T10:29:33;2.83;;;1.75;;
10633;SDS011;5365;51.640;8.106;2024-02-04T10:32:34;3.97;;;1.45;;
10633;SDS011;5365;51.640;8.106;2024-02-04T10:35:36;2.28;;;1.23;;
10633;SDS011;5365;51.640;8.106;2024-02-04T10:38:38;6.65;;;1.67;;
10633;SDS011;5365;51.640;8.106;2024-02-04T10:41:49;3.00;;;1.35;;
10633;SDS011;5365;51.640;8.106;2024-02-04T10:44:53;2.58;;;0.93;;
10633;SDS011;5365;51.640;8.106;2024-02-04T10:47:55;2.03;;;1.10;;
10633;SDS011;5365;51.640;8.106;2024-02-04T10:50:58;6.93;;;1.85;;
10633;SDS011;5365;51.640;8.106;2024-02-04T10:54:01;3.08;;;1.67;;
10633;SDS011;5365;51.640;8.106;2024-02-04T10:57:05;1.88;;;0.85;;
10633;SDS011;5365;51.640;8.106;2024-02-04T11:00:07;3.22;;;1.77;;
10633;SDS011;5365;51.640;8.106;2024-02-04T11:03:11;4.82;;;1.77;;
10633;SDS011;5365;51.640;8.106;2024-02-04T11:06:12;1.23;;;0.82;;
10633;SDS011;5365;51.640;8.106;2024-02-04T11:09:14;2.70;;;1.42;;
10633;SDS011;5365;51.640;8.106;2024-02-04T11:12:18;3.00;;;1.40;;
10633;SDS011;5365;51.640;8.106;2024-02-04T11:15:20;3.15;;;1.63;;
10633;SDS011;5365;51.640;8.106;2024-02-04T11:18:43;5.80;;;2.47;;
10633;SDS011;5365;51.640;8.106;2024-02-04T11:24:53;3.33;;;1.77;;
10633;SDS011;5365;51.640;8.106;2024-02-04T11:27:57;4.07;;;1.92;;
10633;SDS011;5365;51.640;8.106;2024-02-04T11:30:59;1.33;;;1.15;;
10633;SDS011;5365;51.640;8.106;2024-02-04T11:34:01;7.07;;;3.53;;
10633;SDS011;5365;51.640;8.106;2024-02-04T11:37:14;3.80;;;1.92;;
10633;SDS011;5365;51.640;8.106;2024-02-04T11:40:16;3.08;;;2.00;;
10633;SDS011;5365;51.640;8.106;2024-02-04T11:43:22;4.15;;;2.03;;
10633;SDS011;5365;51.640;8.106;2024-02-04T11:46:27;3.33;;;2.33;;
10633;SDS011;5365;51.640;8.106;2024-02-04T11:49:28;5.97;;;3.00;;
10633;SDS011;5365;51.640;8.106;2024-02-04T11:52:30;4.55;;;2.42;;
10633;SDS011;5365;51.640;8.106;2024-02-04T11:55:33;3.75;;;2.05;;
10633;SDS011;5365;51.640;8.106;2024-02-04T11:58:35;5.35;;;2.88;;
10633;SDS011;5365;51.640;8.106;2024-02-04T12:01:36;5.78;;;2.15;;
10633;SDS011;5365;51.640;8.106;2024-02-04T12:04:39;3.90;;;2.10;;
10633;SDS011;5365;51.640;8.106;2024-02-04T12:07:41;3.33;;;2.00;;
10633;SDS011;5365;51.640;8.106;2024-02-04T12:10:44;3.55;;;1.88;;
10633;SDS011;5365;51.640;8.106;2024-02-04T12:13:46;3.80;;;2.97;;
10633;SDS011;5365;51.640;8.106;2024-02-04T12:16:48;5.53;;;2.90;;
10633;SDS011;5365;51.640;8.106;2024-02-04T12:19:50;5.63;;;3.08;;
10633;SDS011;5365;51.640;8.106;2024-02-04T12:22:52;4.85;;;2.65;;
10633;SDS011;5365;51.640;8.106;2024-02-04T12:25:54;3.22;;;1.73;;
10633;SDS011;5365;51.640;8.106;2024-02-04T12:28:56;4.97;;;3.55;;
10633;SDS011;5365;51.640;8.106;2024-02-04T12:31:58;6.40;;;3.47;;
10633;SDS011;5365;51.640;8.106;2024-02-04T12:35:00;5.40;;;3.28;;
10633;SDS011;5365;51.640;8.106;2024-02-04T12:38:02;7.18;;;3.05;;
10633;SDS011;5365;51.640;8.106;2024-02-04T12:41:04;5.20;;;2.88;;
10633;SDS011;5365;51.640;8.106;2024-02-04T12:44:07;5.20;;;2.40;;
10633;SDS011;5365;51.640;8.106;2024-02-04T12:47:08;9.60;;;2.92;;
10633;SDS011;5365;51.640;8.106;2024-02-04T12:50:10;5.00;;;2.83;;
10633;SDS011;5365;51.640;8.106;2024-02-04T12:53:13;7.25;;;3.10;;
10633;SDS011;5365;51.640;8.106;2024-02-04T12:56:16;4.63;;;2.28;;
10633;SDS011;5365;51.640;8.106;2024-02-04T12:59:28;5.03;;;1.52;;
10633;SDS011;5365;51.640;8.106;2024-02-04T13:02:30;5.45;;;2.10;;
10633;SDS011;5365;51.640;8.106;2024-02-04T13:05:31;7.07;;;2.30;;
10633;SDS011;5365;51.640;8.106;2024-02-04T13:08:33;4.22;;;2.42;;
10633;SDS011;5365;51.640;8.106;2024-02-04T13:11:35;6.82;;;2.20;;
10633;SDS011;5365;51.640;8.106;2024-02-04T13:14:41;2.58;;;1.33;;
10633;SDS011;5365;51.640;8.106;2024-02-04T13:17:45;4.10;;;1.27;;
10633;SDS011;5365;51.640;8.106;2024-02-04T13:20:46;2.40;;;1.25;;
10633;SDS011;5365;51.640;8.106;2024-02-04T13:23:49;4.85;;;1.63;;
10633;SDS011;5365;51.640;8.106;2024-02-04T13:26:51;2.00;;;1.58;;
10633;SDS011;5365;51.640;8.106;2024-02-04T13:29:53;2.10;;;1.33;;
10633;SDS011;5365;51.640;8.106;2024-02-04T13:32:55;2.50;;;1.08;;
10633;SDS011;5365;51.640;8.106;2024-02-04T13:35:58;2.78;;;1.85;;
10633;SDS011;5365;51.640;8.106;2024-02-04T13:39:00;3.20;;;1.50;;
10633;SDS011;5365;51.640;8.106;2024-02-04T13:42:01;1.10;;;0.95;;
10633;SDS011;5365;51.640;8.106;2024-02-04T13:45:03;2.15;;;1.48;;
10633;SDS011;5365;51.640;8.106;2024-02-04T13:48:05;3.33;;;2.00;;
10633;SDS011;5365;51.640;8.106;2024-02-04T13:51:07;2.38;;;1.50;;
10633;SDS011;5365;51.640;8.106;2024-02-04T13:54:09;2.05;;;1.20;;
10633;SDS011;5365;51.640;8.106;2024-02-04T13:57:12;3.08;;;1.73;;
10633;SDS011;5365;51.640;8.106;2024-02-04T14:00:14;2.22;;;1.48;;
10633;SDS011;5365;51.640;8.106;2024-02-04T14:03:16;2.90;;;1.67;;
10633;SDS011;5365;51.640;8.106;2024-02-04T14:06:17;2.30;;;0.95;;
10633;SDS011;5365;51.640;8.106;2024-02-04T14:09:19;2.78;;;1.05;;
10633;SDS011;5365;51.640;8.106;2024-02-04T14:12:21;3.70;;;1.63;;
10633;SDS011;5365;51.640;8.106;2024-02-04T14:15:22;2.92;;;1.17;;
10633;SDS011;5365;51.640;8.106;2024-02-04T14:18:24;4.93;;;2.05;;
10633;SDS011;5365;51.640;8.106;2024-02-04T14:21:26;3.83;;;2.28;;
10633;SDS011;5365;51.640;8.106;2024-02-04T14:24:28;3.33;;;1.70;;
10633;SDS011;5365;51.640;8.106;2024-02-04T14:27:29;1.25;;;0.88;;
10633;SDS011;5365;51.640;8.106;2024-02-04T14:30:31;4.35;;;2.17;;
10633;SDS011;5365;51.640;8.106;2024-02-04T14:33:33;6.53;;;3.72;;
10633;SDS011;5365;51.640;8.106;2024-02-04T14:36:34;6.05;;;2.58;;
10633;SDS011;5365;51.640;8.106;2024-02-04T14:39:36;5.75;;;2.55;;
10633;SDS011;5365;51.640;8.106;2024-02-04T14:42:38;4.38;;;2.17;;
10633;SDS011;5365;51.640;8.106;2024-02-04T14:45:41;5.53;;;3.33;;
10633;SDS011;5365;51.640;8.106;2024-02-04T14:48:43;4.82;;;3.00;;
10633;SDS011;5365;51.640;8.106;2024-02-04T14:51:45;3.80;;;2.47;;
10633;SDS011;5365;51.640;8.106;2024-02-04T14:54:47;4.15;;;1.90;;
10633;SDS011;5365;51.640;8.106;2024-02-04T14:57:49;4.15;;;2.22;;
10633;SDS011;5365;51.640;8.106;2024-02-04T15:00:50;4.68;;;2.20;;
10633;SDS011;5365;51.640;8.106;2024-02-04T15:03:52;5.78;;;3.10;;
10633;SDS011;5365;51.640;8.106;2024-02-04T15:06:54;4.50;;;2.20;;
10633;SDS011;5365;51.640;8.106;2024-02-04T15:09:56;4.35;;;2.10;;
10633;SDS011;5365;51.640;8.106;2024-02-04T15:12:58;1.10;;;0.60;;
10633;SDS011;5365;51.640;8.106;2024-02-04T15:15:59;2.70;;;1.13;;
10633;SDS011;5365;51.640;8.106;2024-02-04T15:19:01;3.67;;;1.55;;
10633;SDS011;5365;51.640;8.106;2024-02-04T15:22:04;5.40;;;2.58;;
10633;SDS011;5365;51.640;8.106;2024-02-04T15:25:06;4.70;;;3.00;;
10633;SDS011;5365;51.640;8.106;2024-02-04T15:28:08;9.18;;;3.30;;
10633;SDS011;5365;51.640;8.106;2024-02-04T15:31:12;5.28;;;2.47;;
10633;SDS011;5365;51.640;8.106;2024-02-04T15:34:14;3.33;;;2.25;;
10633;SDS011;5365;51.640;8.106;2024-02-04T15:37:16;5.90;;;3.35;;
10633;SDS011;5365;51.640;8.106;2024-02-04T15:40:19;2.60;;;1.60;;
10633;SDS011;5365;51.640;8.106;2024-02-04T15:43:20;4.07;;;2.53;;
10633;SDS011;5365;51.640;8.106;2024-02-04T15:46:22;4.53;;;2.05;;
10633;SDS011;5365;51.640;8.106;2024-02-04T15:49:24;5.13;;;2.15;;
10633;SDS011;5365;51.640;8.106;2024-02-04T15:52:28;3.85;;;2.00;;
10633;SDS011;5365;51.640;8.106;2024-02-04T15:55:32;4.43;;;2.50;;
10633;SDS011;5365;51.640;8.106;2024-02-04T15:58:35;3.42;;;1.90;;
10633;SDS011;5365;51.640;8.106;2024-02-04T16:01:39;2.50;;;1.58;;
10633;SDS011;5365;51.640;8.106;2024-02-04T16:04:44;1.52;;;1.10;;
10633;SDS011;5365;51.640;8.106;2024-02-04T16:07:48;3.00;;;1.33;;
10633;SDS011;5365;51.640;8.106;2024-02-04T16:10:51;6.60;;;2.40;;
10633;SDS011;5365;51.640;8.106;2024-02-04T16:13:54;4.40;;;2.05;;
10633;SDS011;5365;51.640;8.106;2024-02-04T16:16:59;4.38;;;2.25;;
10633;SDS011;5365;51.640;8.106;2024-02-04T16:20:03;2.20;;;1.48;;
10633;SDS011;5365;51.640;8.106;2024-02-04T16:23:06;5.97;;;2.33;;
10633;SDS011;5365;51.640;8.106;2024-02-04T16:26:08;1.85;;;1.08;;
10633;SDS011;5365;51.640;8.106;2024-02-04T16:29:10;3.53;;;2.15;;
10633;SDS011;5365;51.640;8.106;2024-02-04T16:32:11;4.75;;;1.83;;
10633;SDS011;5365;51.640;8.106;2024-02-04T16:35:14;3.50;;;1.75;;
10633;SDS011;5365;51.640;8.106;2024-02-04T16:38:16;3.65;;;1.77;;
10633;SDS011;5365;51.640;8.106;2024-02-04T16:41:18;4.32;;;2.33;;
10633;SDS011;5365;51.640;8.106;2024-02-04T16:44:19;3.67;;;1.85;;
10633;SDS011;5365;51.640;8.106;2024-02-04T16:47:21;4.63;;;2.20;;
10633;SDS011;5365;51.640;8.106;2024-02-04T16:50:23;4.78;;;2.80;;
10633;SDS011;5365;51.640;8.106;2024-02-04T16:53:25;3.22;;;2.00;;
10633;SDS011;5365;51.640;8.106;2024-02-04T16:56:27;5.85;;;2.67;;
10633;SDS011;5365;51.640;8.106;2024-02-04T16:59:28;7.00;;;3.58;;
10633;SDS011;5365;51.640;8.106;2024-02-04T17:02:30;8.10;;;2.22;;
10633;SDS011;5365;51.640;8.106;2024-02-04T17:05:32;4.72;;;2.72;;
10633;SDS011;5365;51.640;8.106;2024-02-04T17:08:35;5.18;;;2.85;;
10633;SDS011;5365;51.640;8.106;2024-02-04T17:11:37;10.88;;;4.93;;
10633;SDS011;5365;51.640;8.106;2024-02-04T17:14:39;11.35;;;4.97;;
10633;SDS011;5365;51.640;8.106;2024-02-04T17:17:41;9.02;;;4.63;;
10633;SDS011;5365;51.640;8.106;2024-02-04T17:20:47;12.18;;;5.57;;
10633;SDS011;5365;51.640;8.106;2024-02-04T17:23:50;9.18;;;4.82;;
10633;SDS011;5365;51.640;8.106;2024-02-04T17:26:56;12.55;;;5.75;;
10633;SDS011;5365;51.640;8.106;2024-02-04T17:29:58;6.90;;;3.85;;
10633;SDS011;5365;51.640;8.106;2024-02-04T17:33:02;17.50;;;6.57;;
10633;SDS011;5365;51.640;8.106;2024-02-04T17:36:06;14.25;;;5.32;;
10633;SDS011;5365;51.640;8.106;2024-02-04T17:39:07;15.25;;;5.93;;
10633;SDS011;5365;51.640;8.106;2024-02-04T17:42:09;16.20;;;7.97;;
10633;SDS011;5365;51.640;8.106;2024-02-04T17:45:12;10.88;;;5.18;;
10633;SDS011;5365;51.640;8.106;2024-02-04T17:48:13;13.90;;;6.55;;
10633;SDS011;5365;51.640;8.106;2024-02-04T17:51:15;8.82;;;4.38;;
10633;SDS011;5365;51.640;8.106;2024-02-04T17:54:18;13.20;;;7.15;;
10633;SDS011;5365;51.640;8.106;2024-02-04T17:57:19;7.38;;;3.88;;
10633;SDS011;5365;51.640;8.106;2024-02-04T18:00:21;13.60;;;6.78;;
10633;SDS011;5365;51.640;8.106;2024-02-04T18:03:22;6.50;;;3.65;;
10633;SDS011;5365;51.640;8.106;2024-02-04T18:06:25;9.07;;;4.70;;
10633;SDS011;5365;51.640;8.106;2024-02-04T18:09:27;15.02;;;6.88;;
10633;SDS011;5365;51.640;8.106;2024-02-04T18:12:30;7.68;;;3.70;;
10633;SDS011;5365;51.640;8.106;2024-02-04T18:15:34;8.88;;;5.70;;
10633;SDS011;5365;51.640;8.106;2024-02-04T18:18:36;11.43;;;4.90;;
10633;SDS011;5365;51.640;8.106;2024-02-04T18:21:38;5.63;;;4.22;;
10633;SDS011;5365;51.640;8.106;2024-02-04T18:24:39;13.35;;;4.55;;
10633;SDS011;5365;51.640;8.106;2024-02-04T18:27:41;8.07;;;4.30;;
10633;SDS011;5365;51.640;8.106;2024-02-04T18:30:44;10.95;;;4.88;;
10633;SDS011;5365;51.640;8.106;2024-02-04T18:33:46;12.07;;;4.77;;
10633;SDS011;5365;51.640;8.106;2024-02-04T18:36:50;11.68;;;5.32;;